Latest Weather Observations for Warburto Point

IDS60801

Issued at 5:31 pm CST Monday 25 September 2017 (issued every 30 minutes, with the page automatically refreshed every 10 minutes)

About weather observations | Map of weather stations | Latest weather observations for SA | Other Formats
Station Details ID: 022053 Name: WARBURTO POINT Lat: -34.00 Lon: 137.53 Height: 1.0 m
Data from the previous 72 hours. | See also: Recent months for locations in South Australia
Date/Time
CST
Temp
°C
App
Temp
°C
Dew
Point
°C
Rel
Hum
%
Delta-T
°C
Wind Press
QNH
hPa
Press
MSL
hPa
Rain since
9am
mm
Dir  Spd
km/h
Gust
km/h
Spd
kts
Gust
kts
25/05:30pm - - - - - SSW 24 30 13 16 - - -
25/05:00pm - - - - - SW 20 26 11 14 - - -
25/04:30pm - - - - - SW 20 28 11 15 - - -
25/04:00pm - - - - - SW 24 30 13 16 - - -
25/03:30pm - - - - - SW 22 30 12 16 - - -
25/03:00pm - - - - - SW 20 28 11 15 - - -
25/02:30pm - - - - - SW 19 24 10 13 - - -
25/02:00pm - - - - - SW 17 20 9 11 - - -
25/01:30pm - - - - - SW 17 22 9 12 - - -
25/01:00pm - - - - - WSW 15 20 8 11 - - -
25/12:30pm - - - - - SW 17 20 9 11 - - -
25/12:00pm - - - - - W 17 22 9 12 - - -
25/11:30am - - - - - W 17 22 9 12 - - -
25/11:00am - - - - - W 19 22 10 12 - - -
25/10:30am - - - - - W 15 20 8 11 - - -
25/10:00am - - - - - W 17 20 9 11 - - -
25/09:30am - - - - - WNW 15 20 8 11 - - -
25/09:00am - - - - - WNW 20 24 11 13 - - -
25/08:30am - - - - - NW 20 28 11 15 - - -
25/08:00am - - - - - NW 26 32 14 17 - - -
25/07:30am - - - - - NW 26 32 14 17 - - -
25/07:00am - - - - - NW 26 32 14 17 - - -
25/06:30am - - - - - WNW 17 24 9 13 - - -
25/06:00am - - - - - WNW 17 20 9 11 - - -
25/05:30am - - - - - WNW 15 20 8 11 - - -
25/05:00am - - - - - WSW 11 13 6 7 - - -
25/04:30am - - - - - SSW 22 32 12 17 - - -
25/04:00am - - - - - SW 24 30 13 16 - - -
25/03:30am - - - - - WSW 24 32 13 17 - - -
25/03:00am - - - - - WSW 24 33 13 18 - - -
25/02:30am - - - - - WSW 26 35 14 19 - - -
25/02:00am - - - - - WSW 24 35 13 19 - - -
25/01:30am - - - - - W 26 33 14 18 - - -
25/01:00am - - - - - W 28 35 15 19 - - -
25/12:30am - - - - - W 26 32 14 17 - - -
25/12:00am - - - - - W 26 33 14 18 - - -
 
Date/Time
CST
Temp
°C
App
Temp
°C
Dew
Point
°C
Rel
Hum
%
Delta-T
°C
Wind Press
QNH
hPa
Press
MSL
hPa
Rain since
9am
mm
Dir  Spd
km/h
Gust
km/h
Spd
kts
Gust
kts
24/11:30pm - - - - - W 26 35 14 19 - - -
24/11:00pm - - - - - W 26 35 14 19 - - -
24/10:30pm - - - - - WSW 28 35 15 19 - - -
24/10:00pm - - - - - W 35 46 19 25 - - -
24/09:30pm - - - - - WSW 32 39 17 21 - - -
24/09:00pm - - - - - WSW 30 39 16 21 - - -
24/08:30pm - - - - - WSW 32 46 17 25 - - -
24/08:00pm - - - - - WSW 32 39 17 21 - - -
24/07:30pm - - - - - WSW 32 41 17 22 - - -
24/07:00pm - - - - - WSW 33 43 18 23 - - -
24/06:30pm - - - - - WSW 39 52 21 28 - - -
24/06:28pm - - - - - WSW 37 52 20 28 - - -
24/06:00pm - - - - - WSW 24 33 13 18 - - -
24/05:30pm - - - - - SW 30 35 16 19 - - -
24/05:00pm - - - - - WSW 28 37 15 20 - - -
24/04:30pm - - - - - WSW 32 41 17 22 - - -
24/04:00pm - - - - - WSW 33 43 18 23 - - -
24/03:30pm - - - - - WSW 33 43 18 23 - - -
24/03:00pm - - - - - WSW 32 41 17 22 - - -
24/02:30pm - - - - - WSW 28 37 15 20 - - -
24/02:00pm - - - - - WSW 32 41 17 22 - - -
24/01:30pm - - - - - WSW 26 33 14 18 - - -
24/01:00pm - - - - - W 19 28 10 15 - - -
24/12:30pm - - - - - W 20 26 11 14 - - -
24/12:00pm - - - - - WNW 19 26 10 14 - - -
24/11:30am - - - - - NW 24 32 13 17 - - -
24/11:00am - - - - - WNW 30 39 16 21 - - -
24/10:30am - - - - - WNW 33 44 18 24 - - -
24/10:00am - - - - - WNW 33 41 18 22 - - -
24/09:30am - - - - - NW 32 37 17 20 - - -
24/09:00am - - - - - NW 33 39 18 21 - - -
24/08:30am - - - - - NW 30 37 16 20 - - -
24/08:00am - - - - - NW 32 39 17 21 - - -
24/07:30am - - - - - WNW 37 48 20 26 - - -
24/07:00am - - - - - WNW 37 46 20 25 - - -
24/06:30am - - - - - WNW 39 48 21 26 - - -
24/06:00am - - - - - WNW 37 48 20 26 - - -
24/05:30am - - - - - WNW 35 44 19 24 - - -
24/05:00am - - - - - WNW 37 46 20 25 - - -
24/04:30am - - - - - W 37 46 20 25 - - -
24/04:00am - - - - - W 43 52 23 28 - - -
24/03:30am - - - - - WNW 43 54 23 29 - - -
24/03:00am - - - - - WNW 41 52 22 28 - - -
24/02:30am - - - - - W 39 48 21 26 - - -
24/02:00am - - - - - W 39 52 21 28 - - -
24/01:30am - - - - - WNW 39 50 21 27 - - -
24/01:00am - - - - - WNW 37 48 20 26 - - -
24/12:30am - - - - - WNW 37 48 20 26 - - -
24/12:00am - - - - - WNW 39 52 21 28 - - -
 
Date/Time
CST
Temp
°C
App
Temp
°C
Dew
Point
°C
Rel
Hum
%
Delta-T
°C
Wind Press
QNH
hPa
Press
MSL
hPa
Rain since
9am
mm
Dir  Spd
km/h
Gust
km/h
Spd
kts
Gust
kts
23/11:30pm - - - - - WNW 35 48 19 26 - - -
23/11:00pm - - - - - WNW 33 44 18 24 - - -
23/10:51pm - - - - - NW 30 44 16 24 - - -
23/10:30pm - - - - - NW 20 26 11 14 - - -
23/10:00pm - - - - - NW 20 26 11 14 - - -
23/09:30pm - - - - - NW 24 30 13 16 - - -
23/09:00pm - - - - - WNW 28 33 15 18 - - -
23/08:30pm - - - - - WNW 32 37 17 20 - - -
23/08:00pm - - - - - WNW 26 35 14 19 - - -
23/07:30pm - - - - - W 20 26 11 14 - - -
23/07:00pm - - - - - W 22 28 12 15 - - -
23/06:30pm - - - - - W 20 28 11 15 - - -
23/06:00pm - - - - - W 20 28 11 15 - - -
23/05:30pm - - - - - WSW 22 28 12 15 - - -
23/05:00pm - - - - - WSW 20 28 11 15 - - -
23/04:30pm - - - - - WSW 20 26 11 14 - - -
23/04:00pm - - - - - WSW 17 22 9 12 - - -
23/03:30pm - - - - - SW 19 24 10 13 - - -
23/03:00pm - - - - - W 24 30 13 16 - - -
23/02:30pm - - - - - W 22 30 12 16 - - -
23/02:00pm - - - - - W 15 19 8 10 - - -
23/01:30pm - - - - - W 19 26 10 14 - - -
23/01:00pm - - - - - W 22 28 12 15 - - -
23/12:30pm - - - - - W 26 35 14 19 - - -
23/12:00pm - - - - - W 26 33 14 18 - - -
23/11:30am - - - - - W 30 39 16 21 - - -
23/11:00am - - - - - N 17 26 9 14 - - -
23/10:30am - - - - - N 13 19 7 10 - - -
23/10:00am - - - - - NNW 15 17 8 9 - - -
23/09:30am - - - - - NW 17 22 9 12 - - -
23/09:00am - - - - - WNW 19 24 10 13 - - -
23/08:30am - - - - - WNW 19 26 10 14 - - -
23/08:00am - - - - - W 19 24 10 13 - - -
23/07:30am - - - - - WSW 19 26 10 14 - - -
23/07:00am - - - - - WSW 20 28 11 15 - - -
23/06:30am - - - - - SW 7 9 4 5 - - -
23/06:00am - - - - - SSW 15 20 8 11 - - -
23/05:30am - - - - - S 19 32 10 17 - - -
23/05:00am - - - - - W 15 35 8 19 - - -
23/04:51am - - - - - E 15 35 8 19 - - -
23/04:30am - - - - - ENE 11 17 6 9 - - -
23/04:00am - - - - - SE 17 26 9 14 - - -
23/03:30am - - - - - SE 13 20 7 11 - - -
23/03:00am - - - - - SE 13 19 7 10 - - -
23/02:30am - - - - - SSE 17 22 9 12 - - -
23/02:00am - - - - - S 22 41 12 22 - - -
23/01:44am - - - - - SW 28 46 15 25 - - -
23/01:30am - - - - - ENE 6 11 3 6 - - -
23/01:00am - - - - - E 26 32 14 17 - - -
23/12:30am - - - - - E 26 35 14 19 - - -
23/12:00am - - - - - ESE 17 20 9 11 - - -
 
Date/Time
CST
Temp
°C
App
Temp
°C
Dew
Point
°C
Rel
Hum
%
Delta-T
°C
Wind Press
QNH
hPa
Press
MSL
hPa
Rain since
9am
mm
Dir  Spd
km/h
Gust
km/h
Spd
kts
Gust
kts
22/11:30pm - - - - - S 17 20 9 11 - - -
22/11:00pm - - - - - S 11 13 6 7 - - -
22/10:30pm - - - - - SW 6 9 3 5 - - -
22/10:00pm - - - - - ESE 11 13 6 7 - - -
22/09:30pm - - - - - E 15 19 8 10 - - -
22/09:00pm - - - - - SSE 15 17 8 9 - - -
22/08:30pm - - - - - SSE 13 19 7 10 - - -
22/08:00pm - - - - - SSE 9 11 5 6 - - -
22/07:30pm - - - - - SE 13 15 7 8 - - -
22/07:00pm - - - - - SSE 13 15 7 8 - - -
22/06:30pm - - - - - SSW 17 20 9 11 - - -
22/06:00pm - - - - - WSW 11 20 6 11 - - -

Other Formats:

Comma delimited format used in spreadsheet applications
http://www.bom.gov.au/fwo/IDS60801/IDS60801.94666.axf

JavaScript Object Notation format (JSON) in row-major order
http://www.bom.gov.au/fwo/IDS60801/IDS60801.94666.json